ASN logo
ASN Wikibase Occurrence # 269610
Last updated: 1 December 2021
This information is added by users of ASN. Neither ASN nor the Flight Safety Foundation are responsible for the completeness or correctness of this information. If you feel this information is incomplete or incorrect, you can submit corrected information.

Date:15-NOV-2021
Time:12:45
Type:Silhouette image of generic BE9L model; specific model in this crash may look slightly different
Beechcraft E90 King Air
Owner/operator:N290KA LLC
Registration: N290KA
MSN: LW-59
Fatalities:Fatalities: 2 / Occupants: 2
Other fatalities:0
Aircraft damage: Written off (damaged beyond repair)
Category:Accident
Location:4 miles E of Boyne City Municipal Airport (N98), MI -   United States of America
Phase: Approach
Nature:Private
Departure airport:Pontiac-Oakland County International Airport, MI (PTK/KPTK)
Destination airport:Boyne City Municipal Airport, MI (N98)
Investigating agency: NTSB
Narrative:
A Beechcraft E90 King Air, N290KA, was destroyed when it impacted the terrain while on approach to runway 27, approx 4 mi East of Boyne City Municipal Airport (N98), Boyne City, Michigan.
The two people onboard were fatally injured.

[2 closest reporting stations]
METAR KMGN 151755Z AUTO 36005KT 10SM SCT017 BKN026 OVC032 03/01 A2995
METAR KCVX 151755Z AUTO 28011G16KT 10SM CLR 05/01 A2996

Sources:

https://www.msn.com/en-us/news/us/2nd-fatal-plane-crash-in-3-days-kills-2-in-northern-michigan/ar-AAQKogn?ocid=msedgntp
https://www.asias.faa.gov/apex/f?p=100:96:29522774055246::::P96_ENTRY_DATE,P96_FATAL_FLG:16-NOV-21,YES
https://registry.faa.gov/AircraftInquiry/Search/NNumberResult?nNumberTxt=290KA
https://www.aircraft.com/aircraft/1136535/n290ka-1973-beechcraft-king-air-e90
https://flightaware.com/resources/registration/N290KA
https://imgproc.airliners.net/photos/airliners/4/8/1/2165184.jpg?v=v40 (photo)
https://flightaware.com/live/flight/N290KA

Location


Revision history:

Date/timeContributorUpdates
16-Nov-2021 07:30 viking Added
16-Nov-2021 07:31 harro Updated [Aircraft type, Cn, Operator, Narrative]
16-Nov-2021 10:46 Captain Adam Updated [Location, Destination airport, Source, Narrative]
16-Nov-2021 20:14 aaronwk Updated [Time, Source, Narrative]
17-Nov-2021 08:54 johnwg Updated [Source, Narrative, Category]

Corrections or additions? ... Edit this accident description